createdAt,value
2018-12-17T00:01:52.382Z,1.70
2018-12-17T00:04:23.844Z,1.70
2018-12-17T00:06:55.547Z,1.70
2018-12-17T00:09:27.064Z,1.80
2018-12-17T00:11:58.668Z,1.70
2018-12-17T00:14:30.267Z,1.70
2018-12-17T00:17:02.049Z,1.80
2018-12-17T00:19:33.470Z,1.80
2018-12-17T00:22:05.269Z,1.80
2018-12-17T00:24:36.872Z,1.80
2018-12-17T00:27:08.424Z,1.80
2018-12-17T00:29:39.950Z,1.80
2018-12-17T00:32:11.546Z,1.90
2018-12-17T00:34:43.094Z,1.90
2018-12-17T00:37:14.640Z,1.90
2018-12-17T00:39:46.064Z,1.90
2018-12-17T00:42:17.640Z,1.80
2018-12-17T00:44:49.278Z,1.80
2018-12-17T00:47:20.780Z,1.80
2018-12-17T00:49:52.172Z,1.80
2018-12-17T00:52:23.759Z,1.80
2018-12-17T00:54:55.314Z,1.70
2018-12-17T00:57:26.885Z,1.70
2018-12-17T00:59:58.319Z,1.70
2018-12-17T01:02:29.872Z,1.70
2018-12-17T01:05:01.385Z,1.70
2018-12-17T01:07:32.993Z,1.70
2018-12-17T01:10:05.297Z,1.70
2018-12-17T01:12:36.708Z,1.70
2018-12-17T01:15:09.716Z,1.70
2018-12-17T01:17:41.271Z,1.70
2018-12-17T01:20:12.968Z,1.80
2018-12-17T01:22:44.467Z,1.80
2018-12-17T01:25:16.028Z,1.90
2018-12-17T01:27:47.472Z,1.80
2018-12-17T01:30:19.028Z,1.80
2018-12-17T01:32:50.504Z,1.80
2018-12-17T01:35:22.080Z,1.80
2018-12-17T01:37:53.684Z,1.70
2018-12-17T01:40:25.292Z,1.70
2018-12-17T01:42:56.800Z,1.50
2018-12-17T01:45:28.198Z,1.50
2018-12-17T01:47:59.725Z,1.50
2018-12-17T01:50:31.241Z,1.50
2018-12-17T01:53:02.905Z,1.40
2018-12-17T01:55:34.520Z,1.40
2018-12-17T01:58:06.025Z,1.30
2018-12-17T02:00:37.621Z,1.30
2018-12-17T02:03:09.236Z,1.30
2018-12-17T02:05:41.093Z,1.50
2018-12-17T02:08:12.761Z,1.60
2018-12-17T02:10:44.300Z,1.70
2018-12-17T02:13:15.903Z,1.80
2018-12-17T02:15:47.408Z,1.90
2018-12-17T02:18:18.950Z,1.90
2018-12-17T02:20:50.415Z,2.00
2018-12-17T02:23:21.958Z,2.00
2018-12-17T02:25:53.428Z,2.10
2018-12-17T02:28:25.027Z,2.10
2018-12-17T02:30:56.540Z,2.10
2018-12-17T02:33:28.075Z,2.10
2018-12-17T02:35:59.536Z,2.10
2018-12-17T02:38:31.136Z,2.10
2018-12-17T02:41:02.674Z,2.00
2018-12-17T02:43:34.216Z,2.00
2018-12-17T02:46:05.730Z,2.00
2018-12-17T02:48:37.359Z,1.90
2018-12-17T02:51:08.861Z,1.90
2018-12-17T02:53:40.461Z,1.90
2018-12-17T02:56:11.970Z,1.90
2018-12-17T02:58:44.092Z,1.90
2018-12-17T03:01:15.862Z,2.00
2018-12-17T03:03:47.343Z,2.00
2018-12-17T03:06:18.935Z,2.00
2018-12-17T03:08:50.458Z,2.00
2018-12-17T03:11:22.157Z,1.90
2018-12-17T03:13:53.669Z,1.80
2018-12-17T03:16:25.366Z,1.70
2018-12-17T03:18:56.877Z,1.70
2018-12-17T03:21:28.482Z,1.60
2018-12-17T03:24:00.234Z,1.50
2018-12-17T03:26:31.820Z,1.50
2018-12-17T03:29:03.325Z,1.50
2018-12-17T03:31:35.361Z,1.50
2018-12-17T03:34:06.974Z,1.60
2018-12-17T03:36:38.561Z,1.60
2018-12-17T03:39:10.177Z,1.60
2018-12-17T03:41:41.878Z,1.70
2018-12-17T03:44:13.414Z,1.70
2018-12-17T03:46:44.841Z,1.70
2018-12-17T03:49:16.437Z,1.70
2018-12-17T03:51:47.843Z,1.70
2018-12-17T03:54:20.035Z,1.70
2018-12-17T03:56:51.637Z,1.70
2018-12-17T03:59:23.065Z,1.70
2018-12-17T04:01:54.670Z,1.80
2018-12-17T04:04:26.179Z,1.90
2018-12-17T04:06:57.817Z,2.00
2018-12-17T04:09:29.278Z,2.10
2018-12-17T04:12:00.692Z,2.20
2018-12-17T04:14:32.186Z,2.30
2018-12-17T04:17:03.754Z,2.30
2018-12-17T04:19:35.184Z,2.30
2018-12-17T04:22:06.837Z,2.30
2018-12-17T04:24:38.257Z,2.40
2018-12-17T04:27:09.842Z,2.40
2018-12-17T04:29:41.656Z,2.60
2018-12-17T04:32:13.279Z,2.60
2018-12-17T04:34:44.808Z,2.50
2018-12-17T04:37:16.375Z,2.60
2018-12-17T04:39:47.935Z,2.50
2018-12-17T04:42:19.372Z,2.50
2018-12-17T04:44:50.920Z,2.50
2018-12-17T04:47:22.387Z,2.40
2018-12-17T04:49:54.125Z,2.30
2018-12-17T04:52:25.596Z,2.20
2018-12-17T04:54:57.230Z,2.10
2018-12-17T04:57:28.787Z,2.10
2018-12-17T05:00:00.344Z,2.00
2018-12-17T05:02:31.759Z,2.00
2018-12-17T05:05:03.473Z,2.00
2018-12-17T05:07:35.315Z,2.00
2018-12-17T05:10:07.616Z,2.00
2018-12-17T05:12:39.047Z,2.00
2018-12-17T05:15:10.655Z,2.10
2018-12-17T05:17:42.160Z,2.20
2018-12-17T05:20:13.791Z,2.20
2018-12-17T05:22:45.224Z,2.20
2018-12-17T05:25:16.822Z,2.20
2018-12-17T05:27:48.358Z,2.10
2018-12-17T05:30:20.190Z,2.10
2018-12-17T05:32:51.789Z,2.20
2018-12-17T05:35:23.424Z,2.30
2018-12-17T05:37:54.993Z,2.30
2018-12-17T05:40:26.397Z,2.30
2018-12-17T05:42:57.993Z,2.30
2018-12-17T05:45:29.615Z,2.40
2018-12-17T05:48:01.204Z,2.40
2018-12-17T05:50:32.747Z,2.40
2018-12-17T05:53:04.222Z,2.40
2018-12-17T05:55:35.861Z,2.40
2018-12-17T05:58:07.316Z,2.50
2018-12-17T06:00:38.858Z,2.40
2018-12-17T06:03:10.331Z,2.40
2018-12-17T06:05:41.929Z,2.30
2018-12-17T06:08:13.748Z,2.20
2018-12-17T06:10:45.384Z,2.20
2018-12-17T06:13:16.801Z,2.10
2018-12-17T06:15:48.383Z,2.00
2018-12-17T06:18:19.799Z,2.00
2018-12-17T06:20:51.660Z,2.10
2018-12-17T06:23:23.360Z,2.10
2018-12-17T06:25:54.784Z,2.10
2018-12-17T06:28:26.368Z,2.10
2018-12-17T06:30:57.781Z,2.20
2018-12-17T06:33:29.373Z,2.20
2018-12-17T06:36:00.789Z,2.30
2018-12-17T06:38:32.432Z,2.40
2018-12-17T06:41:03.901Z,2.40
2018-12-17T06:43:35.482Z,2.50
2018-12-17T06:46:07.135Z,2.50
2018-12-17T06:48:38.698Z,2.50
2018-12-17T06:51:10.117Z,2.50
2018-12-17T06:53:41.704Z,2.50
2018-12-17T06:56:13.117Z,2.50
2018-12-17T06:58:44.709Z,2.60
2018-12-17T07:01:16.244Z,2.50
2018-12-17T07:03:47.803Z,2.50
2018-12-17T07:06:19.415Z,2.50
2018-12-17T07:08:50.933Z,2.60
2018-12-17T07:11:22.652Z,2.60
2018-12-17T07:13:54.147Z,2.60
2018-12-17T07:16:25.752Z,2.60
2018-12-17T07:18:57.356Z,2.70
2018-12-17T07:21:28.894Z,2.60
2018-12-17T07:24:00.355Z,2.60
2018-12-17T07:26:31.909Z,2.60
2018-12-17T07:29:03.389Z,2.70
2018-12-17T07:31:34.915Z,2.60
2018-12-17T07:34:06.412Z,2.70
2018-12-17T07:36:38.020Z,2.60
2018-12-17T07:39:09.969Z,2.60
2018-12-17T07:41:41.448Z,2.50
2018-12-17T07:44:12.858Z,2.40
2018-12-17T07:46:44.427Z,2.40
2018-12-17T07:49:15.989Z,2.40
2018-12-17T07:51:47.545Z,2.40
2018-12-17T07:54:18.966Z,2.40
2018-12-17T07:56:50.543Z,2.40
2018-12-17T07:59:21.976Z,2.40
2018-12-17T08:01:53.700Z,2.40
2018-12-17T08:04:25.519Z,2.40
2018-12-17T08:06:57.076Z,2.40
2018-12-17T08:09:28.689Z,2.40
2018-12-17T08:12:00.295Z,2.40
2018-12-17T08:14:31.837Z,2.30
2018-12-17T08:17:04.128Z,2.20
2018-12-17T08:19:35.653Z,2.20
2018-12-17T08:22:07.213Z,2.30
2018-12-17T08:24:38.618Z,2.30
2018-12-17T08:27:10.220Z,2.40
2018-12-17T08:29:41.828Z,2.50
2018-12-17T08:32:13.236Z,2.50
2018-12-17T08:34:44.652Z,2.40
2018-12-17T08:37:16.220Z,2.40
2018-12-17T08:39:47.655Z,2.30
2018-12-17T08:42:19.234Z,2.30
2018-12-17T08:44:52.177Z,2.30
2018-12-17T08:47:23.696Z,2.30
2018-12-17T08:49:55.105Z,2.20
2018-12-17T08:52:26.681Z,2.20
2018-12-17T08:54:58.364Z,2.20
2018-12-17T08:57:29.891Z,2.20
2018-12-17T09:00:01.357Z,2.20
2018-12-17T09:02:33.015Z,2.20
2018-12-17T09:05:04.941Z,2.10
2018-12-17T09:07:36.718Z,2.20
2018-12-17T09:10:09.444Z,2.20
2018-12-17T09:12:40.869Z,2.20
2018-12-17T09:15:12.398Z,2.20
2018-12-17T09:17:43.876Z,2.30
2018-12-17T09:20:15.406Z,2.30
2018-12-17T09:22:46.896Z,2.30
2018-12-17T09:25:18.481Z,2.40
2018-12-17T09:27:49.977Z,2.40
2018-12-17T09:30:21.542Z,2.50
2018-12-17T09:32:52.967Z,2.50
2018-12-17T09:35:24.537Z,2.40
2018-12-17T09:37:55.949Z,2.50
2018-12-17T09:40:27.535Z,2.50
2018-12-17T09:42:59.206Z,2.50
2018-12-17T09:45:30.774Z,2.60
2018-12-17T09:48:02.357Z,2.70
2018-12-17T09:50:33.958Z,2.70
2018-12-17T09:53:05.504Z,2.70
2018-12-17T09:55:37.064Z,2.70
2018-12-17T09:58:08.533Z,2.70
2018-12-17T10:00:40.124Z,2.70
2018-12-17T10:03:11.781Z,2.70
2018-12-17T10:05:43.292Z,2.70
2018-12-17T10:08:14.836Z,2.80
2018-12-17T10:10:46.257Z,2.80
2018-12-17T10:13:17.845Z,2.80
2018-12-17T10:15:49.296Z,2.70
2018-12-17T10:18:20.948Z,2.70
2018-12-17T10:20:52.414Z,2.70
2018-12-17T10:23:23.961Z,2.80
2018-12-17T10:25:55.497Z,2.80
2018-12-17T10:28:27.062Z,2.90
2018-12-17T10:30:58.492Z,2.80
2018-12-17T10:33:30.077Z,2.90
2018-12-17T10:36:01.713Z,2.90
2018-12-17T10:38:33.188Z,2.90
2018-12-17T10:41:04.733Z,2.90
2018-12-17T10:43:36.225Z,2.90
2018-12-17T10:46:07.929Z,3.00
2018-12-17T10:48:39.482Z,3.00
2018-12-17T10:51:11.064Z,3.10
2018-12-17T10:53:42.460Z,3.20
2018-12-17T10:56:14.044Z,3.10
2018-12-17T10:58:45.452Z,3.10
2018-12-17T11:01:22.066Z,3.10
2018-12-17T11:03:58.636Z,3.10
2018-12-17T11:06:30.292Z,3.20
2018-12-17T11:09:02.357Z,3.30
2018-12-17T11:11:34.124Z,3.40
2018-12-17T11:14:05.548Z,3.60
2018-12-17T11:16:37.045Z,3.60
2018-12-17T11:19:08.436Z,3.60
2018-12-17T11:21:40.269Z,3.60
2018-12-17T11:24:11.847Z,3.70
2018-12-17T11:26:43.259Z,3.80
2018-12-17T11:29:14.863Z,3.80
2018-12-17T11:31:46.372Z,3.80
2018-12-17T11:34:17.986Z,3.80
2018-12-17T11:36:49.477Z,3.80
2018-12-17T11:39:21.070Z,3.80
2018-12-17T11:41:52.591Z,3.90
2018-12-17T11:44:24.233Z,4.00
2018-12-17T11:46:55.780Z,4.30
2018-12-17T11:49:27.400Z,4.60
2018-12-17T11:51:58.900Z,4.90
2018-12-17T11:54:30.440Z,5.00
2018-12-17T11:57:55.080Z,5.10
2018-12-17T12:00:28.219Z,5.20
2018-12-17T12:02:59.756Z,5.20
2018-12-17T12:05:31.269Z,5.20
2018-12-17T12:08:02.909Z,5.00
2018-12-17T12:10:34.362Z,5.10
2018-12-17T12:13:05.893Z,5.00
2018-12-17T12:15:37.368Z,5.10
2018-12-17T12:18:08.898Z,5.10
2018-12-17T12:20:40.362Z,5.00
2018-12-17T12:23:11.959Z,5.00
2018-12-17T12:25:43.472Z,5.20
2018-12-17T12:28:15.014Z,5.20
2018-12-17T12:30:46.474Z,5.20
2018-12-17T12:33:18.077Z,5.10
2018-12-17T12:35:49.586Z,5.20
2018-12-17T12:38:21.116Z,5.20
2018-12-17T12:40:52.529Z,5.30
2018-12-17T12:43:24.122Z,5.40
2018-12-17T12:45:55.679Z,5.60
2018-12-17T12:48:27.246Z,5.70
2018-12-17T12:50:58.844Z,5.70
2018-12-17T12:53:30.360Z,5.90
2018-12-17T12:56:01.960Z,6.00
2018-12-17T12:58:33.461Z,6.00
2018-12-17T13:01:07.719Z,5.90
2018-12-17T13:03:38.482Z,5.80
2018-12-17T13:06:10.050Z,5.70
2018-12-17T13:08:48.078Z,5.60
2018-12-17T13:11:19.518Z,5.40
2018-12-17T13:13:51.127Z,5.30
2018-12-17T13:16:22.639Z,5.10
2018-12-17T13:18:54.274Z,5.10
2018-12-17T13:21:25.694Z,5.00
2018-12-17T13:23:57.286Z,5.00
2018-12-17T13:26:28.837Z,5.00
2018-12-17T13:29:00.287Z,4.90
2018-12-17T13:31:31.711Z,4.90
2018-12-17T13:34:03.293Z,4.90
2018-12-17T13:36:34.908Z,4.90
2018-12-17T13:39:08.296Z,4.90
2018-12-17T13:41:39.797Z,4.90
2018-12-17T13:44:11.211Z,4.90
2018-12-17T13:46:42.799Z,5.00
2018-12-17T13:49:14.355Z,5.00
2018-12-17T13:51:50.858Z,4.90
2018-12-17T13:54:22.374Z,4.90
2018-12-17T13:56:53.838Z,4.90
2018-12-17T13:59:25.383Z,5.00
2018-12-17T14:01:58.191Z,5.00
2018-12-17T14:04:29.885Z,5.00
2018-12-17T14:07:01.387Z,5.00
2018-12-17T14:09:35.052Z,5.00
2018-12-17T14:12:06.696Z,4.90
2018-12-17T14:14:38.059Z,4.80
2018-12-17T14:17:14.519Z,4.70
2018-12-17T14:19:49.994Z,4.60
2018-12-17T14:22:21.621Z,4.50
2018-12-17T14:24:53.148Z,4.50
2018-12-17T14:27:24.650Z,4.40
2018-12-17T14:29:56.125Z,4.40
2018-12-17T14:32:27.771Z,4.40
2018-12-17T14:34:59.239Z,4.40
2018-12-17T14:37:30.771Z,4.30
2018-12-17T14:40:02.244Z,4.30
2018-12-17T14:42:33.798Z,4.20
2018-12-17T14:45:06.747Z,4.20
2018-12-17T14:47:38.326Z,4.20
2018-12-17T14:50:09.820Z,4.30
2018-12-17T14:52:41.377Z,4.30
2018-12-17T15:13:59.829Z,4.40
2018-12-17T15:16:31.280Z,4.50
2018-12-17T15:19:02.774Z,4.50
2018-12-17T15:21:34.274Z,4.50
2018-12-17T15:24:05.818Z,4.50
2018-12-17T15:26:37.693Z,4.50
2018-12-17T15:29:09.188Z,4.50
2018-12-17T15:31:43.243Z,4.50
2018-12-17T15:34:14.062Z,4.40
2018-12-17T15:36:45.701Z,4.40
2018-12-17T15:39:17.207Z,4.40
2018-12-17T15:41:48.848Z,4.40
2018-12-17T15:44:20.225Z,4.40
2018-12-17T15:46:51.747Z,4.50
2018-12-17T15:49:23.159Z,4.50
2018-12-17T15:51:54.751Z,4.60
2018-12-17T15:54:26.122Z,4.60
2018-12-17T15:56:57.653Z,4.60
2018-12-17T15:59:29.295Z,4.70
2018-12-17T16:02:00.894Z,4.70
2018-12-17T16:04:32.376Z,4.70
2018-12-17T16:07:04.003Z,4.70
2018-12-17T16:09:35.481Z,4.70
2018-12-17T16:12:07.080Z,4.70
2018-12-17T16:14:38.451Z,4.60
2018-12-17T16:17:10.512Z,4.60
2018-12-17T16:19:42.161Z,4.50
2018-12-17T16:22:13.574Z,4.50
2018-12-17T16:24:45.245Z,4.50
2018-12-17T16:27:19.497Z,4.50
2018-12-17T16:29:50.491Z,4.50
2018-12-17T16:32:22.192Z,4.40
2018-12-17T16:34:53.800Z,4.40
2018-12-17T16:37:25.291Z,4.40
2018-12-17T16:39:56.846Z,4.40
2018-12-17T16:42:28.304Z,4.40
2018-12-17T16:44:59.845Z,4.40
2018-12-17T16:47:31.310Z,4.40
2018-12-17T16:50:02.925Z,4.30
2018-12-17T16:52:34.407Z,4.30
2018-12-17T16:55:06.333Z,4.30
2018-12-17T16:57:37.915Z,4.30
2018-12-17T17:00:11.882Z,4.30
2018-12-17T17:02:43.387Z,4.30
2018-12-17T17:05:14.891Z,4.30
2018-12-17T17:07:46.484Z,4.30
2018-12-17T17:10:17.934Z,4.30
2018-12-17T17:12:49.495Z,4.30
2018-12-17T17:15:21.080Z,4.30
2018-12-17T17:17:52.613Z,4.30
2018-12-17T17:20:24.013Z,4.30
2018-12-17T17:22:55.605Z,4.20
2018-12-17T17:25:27.232Z,4.20
2018-12-17T17:27:58.726Z,4.20
2018-12-17T17:30:30.345Z,4.20
2018-12-17T17:33:01.849Z,4.20
2018-12-17T17:35:33.190Z,4.20
2018-12-17T17:38:04.719Z,4.20
2018-12-17T17:40:36.451Z,4.30
2018-12-17T17:43:08.045Z,4.30
2018-12-17T17:45:39.472Z,4.30
2018-12-17T17:48:11.036Z,4.30
2018-12-17T17:50:42.459Z,4.30
2018-12-17T17:53:13.953Z,4.30
2018-12-17T17:55:45.561Z,4.20
2018-12-17T17:58:17.085Z,4.20
2018-12-17T18:00:48.517Z,4.20
2018-12-17T18:03:20.068Z,4.20
2018-12-17T18:05:51.634Z,4.10
2018-12-17T18:08:23.287Z,4.10
2018-12-17T18:10:55.090Z,4.10
2018-12-17T18:13:26.595Z,4.10
2018-12-17T18:15:58.194Z,4.10
2018-12-17T18:18:29.708Z,4.00
2018-12-17T18:21:01.313Z,4.00
2018-12-17T18:23:32.808Z,3.90
2018-12-17T18:26:04.369Z,3.90
2018-12-17T18:28:35.824Z,3.90
2018-12-17T18:31:07.346Z,3.90
2018-12-17T18:33:39.845Z,3.90
2018-12-17T18:36:11.339Z,4.00
2018-12-17T18:38:42.829Z,4.00
2018-12-17T18:41:14.267Z,4.00
2018-12-17T18:43:45.855Z,4.10
2018-12-17T18:46:17.395Z,4.10
2018-12-17T18:48:49.058Z,4.10
2018-12-17T18:51:20.472Z,4.00
2018-12-17T18:53:52.063Z,4.00
2018-12-17T18:56:23.680Z,4.00
2018-12-17T18:58:55.193Z,3.90
2018-12-17T19:01:26.779Z,3.90
2018-12-17T19:03:58.283Z,3.90
2018-12-17T19:06:29.901Z,3.90
2018-12-17T19:09:01.376Z,3.90
2018-12-17T19:11:32.994Z,3.90
2018-12-17T19:14:04.518Z,3.90
2018-12-17T19:16:36.109Z,3.80
2018-12-17T19:19:07.607Z,3.80
2018-12-17T19:21:39.258Z,3.80
2018-12-17T19:24:10.718Z,3.80
2018-12-17T19:26:42.327Z,3.80
2018-12-17T19:29:13.792Z,3.80
2018-12-17T19:31:45.377Z,3.80
2018-12-17T19:34:16.837Z,3.80
2018-12-17T19:36:48.442Z,3.80
2018-12-17T19:39:20.009Z,3.80
2018-12-17T19:41:51.584Z,3.80
2018-12-17T19:44:23.019Z,3.80
2018-12-17T19:46:54.585Z,3.80
2018-12-17T19:49:26.143Z,3.80
2018-12-17T19:51:57.712Z,3.80
2018-12-17T19:54:29.120Z,3.80
2018-12-17T19:57:00.706Z,3.90
2018-12-17T19:59:32.125Z,3.90
2018-12-17T20:02:03.712Z,3.90
2018-12-17T20:04:35.136Z,3.90
2018-12-17T20:07:06.684Z,3.90
2018-12-17T20:09:38.132Z,3.90
2018-12-17T20:12:09.732Z,3.90
2018-12-17T20:14:41.184Z,3.90
2018-12-17T20:17:12.731Z,3.90
2018-12-17T20:19:44.185Z,3.80
2018-12-17T20:22:15.612Z,3.80
2018-12-17T20:24:47.184Z,3.80
2018-12-17T20:27:18.732Z,3.80
2018-12-17T20:29:50.643Z,3.80
2018-12-17T20:32:22.311Z,3.80
2018-12-17T20:34:53.821Z,3.80
2018-12-17T20:37:25.421Z,3.80
2018-12-17T20:39:56.980Z,3.80
2018-12-17T20:42:29.282Z,3.80
2018-12-17T20:45:00.845Z,3.90
2018-12-17T20:47:32.199Z,3.90
2018-12-17T20:50:03.779Z,3.90
2018-12-17T20:52:35.216Z,4.00
2018-12-17T20:55:07.205Z,3.90
2018-12-17T20:57:38.582Z,3.90
2018-12-17T21:00:10.315Z,3.90
2018-12-17T21:02:41.816Z,3.90
2018-12-17T21:05:13.401Z,3.90
2018-12-17T21:07:44.782Z,4.00
2018-12-17T21:10:16.499Z,4.00
2018-12-17T21:12:48.417Z,4.00
2018-12-17T21:15:19.931Z,4.10
2018-12-17T21:17:51.451Z,4.00
2018-12-17T21:20:22.888Z,4.10
2018-12-17T21:22:54.456Z,4.00
2018-12-17T21:25:25.944Z,4.10
2018-12-17T21:27:57.463Z,4.00
2018-12-17T21:30:28.930Z,4.00
2018-12-17T21:33:06.581Z,4.00
2018-12-17T21:35:34.063Z,4.00
2018-12-17T21:38:05.631Z,3.90
2018-12-17T21:40:37.245Z,3.80
2018-12-17T21:43:08.836Z,3.80
2018-12-17T21:45:40.438Z,3.70
2018-12-17T21:48:11.950Z,3.70
2018-12-17T21:50:43.555Z,3.70
2018-12-17T21:53:15.061Z,3.70
2018-12-17T21:55:46.603Z,3.80
2018-12-17T21:58:18.056Z,3.70
2018-12-17T22:00:49.678Z,3.80
2018-12-17T22:03:21.176Z,3.80
2018-12-17T22:05:52.705Z,3.90
2018-12-17T22:08:24.132Z,3.90
2018-12-17T22:10:55.773Z,3.90
2018-12-17T22:13:27.279Z,3.90
2018-12-17T22:15:58.878Z,3.90
2018-12-17T22:18:30.367Z,3.90
2018-12-17T22:21:01.986Z,3.90
2018-12-17T22:23:33.399Z,4.00
2018-12-17T22:26:05.000Z,4.00
2018-12-17T22:28:36.499Z,4.00
2018-12-17T22:31:08.111Z,3.90
2018-12-17T22:33:39.612Z,4.00
2018-12-17T22:36:11.153Z,4.10
2018-12-17T22:38:42.606Z,4.10
2018-12-17T22:41:14.163Z,4.10
2018-12-17T22:43:45.623Z,4.10
2018-12-17T22:46:17.230Z,4.10
2018-12-17T22:48:48.747Z,4.10
2018-12-17T22:51:20.266Z,4.10
2018-12-17T22:53:51.740Z,4.20
2018-12-17T22:56:23.277Z,4.20
2018-12-17T22:58:54.755Z,4.20
2018-12-17T23:01:26.318Z,4.20
2018-12-17T23:03:57.804Z,4.30
2018-12-17T23:06:29.386Z,4.30
2018-12-17T23:09:05.240Z,4.30
2018-12-17T23:11:57.991Z,4.30
2018-12-17T23:14:45.782Z,4.30
2018-12-17T23:17:33.412Z,4.20
2018-12-17T23:20:05.072Z,4.10
2018-12-17T23:22:37.631Z,4.10
2018-12-17T23:25:09.174Z,4.10
2018-12-17T23:27:47.148Z,4.10
2018-12-17T23:30:18.719Z,4.10
2018-12-17T23:32:50.255Z,4.10
2018-12-17T23:35:21.963Z,4.20
2018-12-17T23:37:53.336Z,4.20
2018-12-17T23:40:24.922Z,4.30
2018-12-17T23:42:56.340Z,4.30
2018-12-17T23:45:28.056Z,4.30
2018-12-17T23:47:59.640Z,4.30
2018-12-17T23:50:31.129Z,4.40
2018-12-17T23:53:02.562Z,4.20
2018-12-17T23:55:34.160Z,4.10
2018-12-17T23:58:05.756Z,4.00
